Pagina principale
METAR-TAF:

METAR-TAF

Aeroporti :

Wasilla, Alaska, Stati Uniti

latitudine: 61-34-19N, longitudine: 149-32-26W, altezza: 106 m

Osservazione

Il bollettino è stato emesso 15 minuti fa, alle 01:56 UTC
Vento 3 kt da direzioni variabili
Temperature 14°C
Umidità 51%
Pressione 1001 hPa
Visibilità: 16.1 km
Nuvoloso ad un'altezza di 4600 ft
Cielo coperto ad un'altezza di 6000 ft

METAR: PAWS 260156Z AUTO VRB03KT 10SM BKN046 OVC060 14/04 A2957 RMK AO2 SLP017 T01440044

Ora: 18:11 (02:11 UTC)


TAF: mancante

Osservazioni e previsioni meteorologiche di più di 4000 aeroporti (messaggi METAR e TAF).

Le stazioni disponibili sono rappresentate dai dischi gialli e rossi sulla carta.

Puntare il mouse per vedere il nome della stazione.

Clicca sopra per visualizzare le osservazioni e previsioni meteorologiche.

Per cambiare la mappa : fare clic sui pulsanti verdi con una croce nera per ingrandire, il pulsante verde con un trattino per diminuire, o sulla freccia verde per le mappe adiacenti.


METAR-TAF: